sensor_id;sensor_type;location;lat;lon;timestamp;P1;durP1;ratioP1;P2;durP2;ratioP2
18716;SDS011;9487;50.892;6.906;2023-11-19T00:00:06;1.60;;;1.40;;
18716;SDS011;9487;50.892;6.906;2023-11-19T00:02:37;2.73;;;1.33;;
18716;SDS011;9487;50.892;6.906;2023-11-19T00:05:04;2.80;;;1.30;;
18716;SDS011;9487;50.892;6.906;2023-11-19T00:07:37;2.53;;;1.60;;
18716;SDS011;9487;50.892;6.906;2023-11-19T00:10:07;1.80;;;1.23;;
18716;SDS011;9487;50.892;6.906;2023-11-19T00:12:36;1.80;;;1.40;;
18716;SDS011;9487;50.892;6.906;2023-11-19T00:15:05;1.30;;;1.00;;
18716;SDS011;9487;50.892;6.906;2023-11-19T00:17:36;1.77;;;1.13;;
18716;SDS011;9487;50.892;6.906;2023-11-19T00:20:04;1.17;;;0.97;;
18716;SDS011;9487;50.892;6.906;2023-11-19T00:22:35;1.57;;;1.20;;
18716;SDS011;9487;50.892;6.906;2023-11-19T00:25:03;1.90;;;1.30;;
18716;SDS011;9487;50.892;6.906;2023-11-19T00:27:31;1.20;;;0.93;;
18716;SDS011;9487;50.892;6.906;2023-11-19T00:29:57;2.30;;;0.93;;
18716;SDS011;9487;50.892;6.906;2023-11-19T00:32:25;1.67;;;1.00;;
18716;SDS011;9487;50.892;6.906;2023-11-19T00:34:52;1.13;;;0.90;;
18716;SDS011;9487;50.892;6.906;2023-11-19T00:37:20;1.53;;;1.40;;
18716;SDS011;9487;50.892;6.906;2023-11-19T00:39:50;1.47;;;1.17;;
18716;SDS011;9487;50.892;6.906;2023-11-19T00:42:19;2.70;;;1.20;;
18716;SDS011;9487;50.892;6.906;2023-11-19T00:44:48;0.80;;;0.67;;
18716;SDS011;9487;50.892;6.906;2023-11-19T00:47:16;2.53;;;0.60;;
18716;SDS011;9487;50.892;6.906;2023-11-19T00:49:45;1.53;;;0.50;;
18716;SDS011;9487;50.892;6.906;2023-11-19T00:52:13;1.57;;;0.60;;
18716;SDS011;9487;50.892;6.906;2023-11-19T00:54:41;0.90;;;0.40;;
18716;SDS011;9487;50.892;6.906;2023-11-19T00:57:09;0.73;;;0.50;;
18716;SDS011;9487;50.892;6.906;2023-11-19T00:59:36;0.80;;;0.40;;
18716;SDS011;9487;50.892;6.906;2023-11-19T01:02:03;1.07;;;0.60;;
18716;SDS011;9487;50.892;6.906;2023-11-19T01:04:33;2.50;;;0.60;;
18716;SDS011;9487;50.892;6.906;2023-11-19T01:07:01;1.43;;;0.47;;
18716;SDS011;9487;50.892;6.906;2023-11-19T01:09:29;1.30;;;0.57;;
18716;SDS011;9487;50.892;6.906;2023-11-19T01:11:57;0.50;;;0.50;;
18716;SDS011;9487;50.892;6.906;2023-11-19T01:14:27;1.30;;;0.57;;
18716;SDS011;9487;50.892;6.906;2023-11-19T01:16:54;1.70;;;0.67;;
18716;SDS011;9487;50.892;6.906;2023-11-19T01:19:22;1.07;;;0.53;;
18716;SDS011;9487;50.892;6.906;2023-11-19T01:21:50;1.07;;;0.60;;
18716;SDS011;9487;50.892;6.906;2023-11-19T01:24:17;0.90;;;0.57;;
18716;SDS011;9487;50.892;6.906;2023-11-19T01:26:44;2.60;;;0.60;;
18716;SDS011;9487;50.892;6.906;2023-11-19T01:29:12;1.70;;;0.70;;
18716;SDS011;9487;50.892;6.906;2023-11-19T01:31:43;2.07;;;0.60;;
18716;SDS011;9487;50.892;6.906;2023-11-19T01:34:12;3.30;;;0.70;;
18716;SDS011;9487;50.892;6.906;2023-11-19T01:36:39;1.63;;;0.93;;
18716;SDS011;9487;50.892;6.906;2023-11-19T01:39:06;2.20;;;1.40;;
18716;SDS011;9487;50.892;6.906;2023-11-19T01:41:34;2.83;;;1.60;;
18716;SDS011;9487;50.892;6.906;2023-11-19T01:44:03;6.63;;;2.33;;
18716;SDS011;9487;50.892;6.906;2023-11-19T01:46:32;4.20;;;2.60;;
18716;SDS011;9487;50.892;6.906;2023-11-19T01:49:00;4.10;;;2.43;;
18716;SDS011;9487;50.892;6.906;2023-11-19T01:51:28;3.03;;;1.80;;
18716;SDS011;9487;50.892;6.906;2023-11-19T01:53:55;2.60;;;1.20;;
18716;SDS011;9487;50.892;6.906;2023-11-19T01:56:24;3.43;;;1.33;;
18716;SDS011;9487;50.892;6.906;2023-11-19T01:58:55;3.00;;;1.30;;
18716;SDS011;9487;50.892;6.906;2023-11-19T02:01:23;2.70;;;1.10;;
18716;SDS011;9487;50.892;6.906;2023-11-19T02:03:51;4.07;;;1.30;;
18716;SDS011;9487;50.892;6.906;2023-11-19T02:06:19;2.47;;;1.13;;
18716;SDS011;9487;50.892;6.906;2023-11-19T02:08:47;3.27;;;1.27;;
18716;SDS011;9487;50.892;6.906;2023-11-19T02:11:13;4.07;;;1.43;;
18716;SDS011;9487;50.892;6.906;2023-11-19T02:13:40;3.53;;;1.03;;
18716;SDS011;9487;50.892;6.906;2023-11-19T02:16:09;3.83;;;1.50;;
18716;SDS011;9487;50.892;6.906;2023-11-19T02:18:36;3.27;;;1.17;;
18716;SDS011;9487;50.892;6.906;2023-11-19T02:21:05;5.57;;;1.60;;
18716;SDS011;9487;50.892;6.906;2023-11-19T02:23:33;6.13;;;1.53;;
18716;SDS011;9487;50.892;6.906;2023-11-19T02:26:05;5.57;;;1.17;;
18716;SDS011;9487;50.892;6.906;2023-11-19T02:28:41;3.90;;;1.40;;
18716;SDS011;9487;50.892;6.906;2023-11-19T02:31:08;5.37;;;1.60;;
18716;SDS011;9487;50.892;6.906;2023-11-19T02:33:36;5.03;;;1.50;;
18716;SDS011;9487;50.892;6.906;2023-11-19T02:36:04;5.20;;;1.50;;
18716;SDS011;9487;50.892;6.906;2023-11-19T02:38:32;6.73;;;1.90;;
18716;SDS011;9487;50.892;6.906;2023-11-19T02:40:59;3.83;;;1.60;;
18716;SDS011;9487;50.892;6.906;2023-11-19T02:43:30;6.47;;;1.60;;
18716;SDS011;9487;50.892;6.906;2023-11-19T02:45:59;4.50;;;1.50;;
18716;SDS011;9487;50.892;6.906;2023-11-19T02:48:27;6.40;;;2.20;;
18716;SDS011;9487;50.892;6.906;2023-11-19T02:50:56;7.80;;;2.10;;
18716;SDS011;9487;50.892;6.906;2023-11-19T02:53:24;5.93;;;1.70;;
18716;SDS011;9487;50.892;6.906;2023-11-19T02:55:54;7.03;;;1.87;;
18716;SDS011;9487;50.892;6.906;2023-11-19T02:58:27;9.17;;;1.90;;
18716;SDS011;9487;50.892;6.906;2023-11-19T03:00:55;6.70;;;1.50;;
18716;SDS011;9487;50.892;6.906;2023-11-19T03:03:27;5.77;;;2.13;;
18716;SDS011;9487;50.892;6.906;2023-11-19T03:06:03;4.73;;;1.50;;
18716;SDS011;9487;50.892;6.906;2023-11-19T03:08:31;7.33;;;1.90;;
18716;SDS011;9487;50.892;6.906;2023-11-19T03:10:58;6.33;;;1.67;;
18716;SDS011;9487;50.892;6.906;2023-11-19T03:13:25;11.03;;;2.17;;
18716;SDS011;9487;50.892;6.906;2023-11-19T03:15:53;6.63;;;2.40;;
18716;SDS011;9487;50.892;6.906;2023-11-19T03:18:20;10.87;;;2.53;;
18716;SDS011;9487;50.892;6.906;2023-11-19T03:20:48;8.13;;;2.33;;
18716;SDS011;9487;50.892;6.906;2023-11-19T03:23:16;8.30;;;2.37;;
18716;SDS011;9487;50.892;6.906;2023-11-19T03:25:42;8.93;;;3.10;;
18716;SDS011;9487;50.892;6.906;2023-11-19T03:28:09;11.00;;;3.60;;
18716;SDS011;9487;50.892;6.906;2023-11-19T03:30:37;10.80;;;3.13;;
18716;SDS011;9487;50.892;6.906;2023-11-19T03:33:04;8.10;;;2.37;;
18716;SDS011;9487;50.892;6.906;2023-11-19T03:35:31;10.50;;;2.43;;
18716;SDS011;9487;50.892;6.906;2023-11-19T03:38:01;9.03;;;2.40;;
18716;SDS011;9487;50.892;6.906;2023-11-19T03:40:30;11.97;;;3.03;;
18716;SDS011;9487;50.892;6.906;2023-11-19T03:42:58;10.40;;;3.37;;
18716;SDS011;9487;50.892;6.906;2023-11-19T03:45:25;12.90;;;3.17;;
18716;SDS011;9487;50.892;6.906;2023-11-19T03:47:52;11.47;;;3.13;;
18716;SDS011;9487;50.892;6.906;2023-11-19T03:50:19;9.27;;;3.17;;
18716;SDS011;9487;50.892;6.906;2023-11-19T03:52:46;8.73;;;3.03;;
18716;SDS011;9487;50.892;6.906;2023-11-19T03:55:15;7.93;;;2.23;;
18716;SDS011;9487;50.892;6.906;2023-11-19T03:57:44;9.63;;;2.43;;
18716;SDS011;9487;50.892;6.906;2023-11-19T04:00:12;8.30;;;2.47;;
18716;SDS011;9487;50.892;6.906;2023-11-19T04:02:39;4.30;;;1.80;;
18716;SDS011;9487;50.892;6.906;2023-11-19T04:05:09;8.20;;;2.20;;
18716;SDS011;9487;50.892;6.906;2023-11-19T04:07:52;8.47;;;2.00;;
18716;SDS011;9487;50.892;6.906;2023-11-19T04:10:27;5.20;;;1.93;;
18716;SDS011;9487;50.892;6.906;2023-11-19T04:12:57;7.63;;;2.00;;
18716;SDS011;9487;50.892;6.906;2023-11-19T04:18:12;4.90;;;1.80;;
18716;SDS011;9487;50.892;6.906;2023-11-19T04:20:39;7.53;;;2.00;;
18716;SDS011;9487;50.892;6.906;2023-11-19T04:23:11;8.20;;;2.40;;
18716;SDS011;9487;50.892;6.906;2023-11-19T04:25:41;9.43;;;2.20;;
18716;SDS011;9487;50.892;6.906;2023-11-19T04:28:10;9.97;;;2.20;;
18716;SDS011;9487;50.892;6.906;2023-11-19T04:30:36;10.17;;;3.50;;
18716;SDS011;9487;50.892;6.906;2023-11-19T04:33:05;8.40;;;2.13;;
18716;SDS011;9487;50.892;6.906;2023-11-19T04:35:32;13.03;;;2.40;;
18716;SDS011;9487;50.892;6.906;2023-11-19T04:37:59;10.53;;;2.73;;
18716;SDS011;9487;50.892;6.906;2023-11-19T04:40:26;8.47;;;2.43;;
18716;SDS011;9487;50.892;6.906;2023-11-19T04:42:55;8.07;;;2.43;;
18716;SDS011;9487;50.892;6.906;2023-11-19T04:45:22;5.93;;;1.90;;
18716;SDS011;9487;50.892;6.906;2023-11-19T04:47:48;7.33;;;2.13;;
18716;SDS011;9487;50.892;6.906;2023-11-19T04:50:15;6.70;;;2.50;;
18716;SDS011;9487;50.892;6.906;2023-11-19T04:52:42;6.73;;;2.03;;
18716;SDS011;9487;50.892;6.906;2023-11-19T04:55:12;6.50;;;2.07;;
18716;SDS011;9487;50.892;6.906;2023-11-19T04:57:39;8.37;;;2.40;;
18716;SDS011;9487;50.892;6.906;2023-11-19T05:00:09;8.47;;;2.37;;
18716;SDS011;9487;50.892;6.906;2023-11-19T05:02:39;7.03;;;2.30;;
18716;SDS011;9487;50.892;6.906;2023-11-19T05:05:08;11.23;;;3.40;;
18716;SDS011;9487;50.892;6.906;2023-11-19T05:07:35;8.20;;;2.37;;
18716;SDS011;9487;50.892;6.906;2023-11-19T05:10:15;9.80;;;2.23;;
18716;SDS011;9487;50.892;6.906;2023-11-19T05:12:42;9.43;;;2.20;;
18716;SDS011;9487;50.892;6.906;2023-11-19T05:15:10;11.47;;;2.50;;
18716;SDS011;9487;50.892;6.906;2023-11-19T05:17:38;9.30;;;2.20;;
18716;SDS011;9487;50.892;6.906;2023-11-19T05:20:06;9.83;;;2.27;;
18716;SDS011;9487;50.892;6.906;2023-11-19T05:22:38;9.67;;;2.60;;
18716;SDS011;9487;50.892;6.906;2023-11-19T05:25:06;10.00;;;2.63;;
18716;SDS011;9487;50.892;6.906;2023-11-19T05:27:35;10.53;;;2.27;;
18716;SDS011;9487;50.892;6.906;2023-11-19T05:30:02;10.97;;;2.40;;
18716;SDS011;9487;50.892;6.906;2023-11-19T05:32:33;10.73;;;2.63;;
18716;SDS011;9487;50.892;6.906;2023-11-19T05:35:00;11.73;;;2.73;;
18716;SDS011;9487;50.892;6.906;2023-11-19T05:37:27;10.57;;;2.50;;
18716;SDS011;9487;50.892;6.906;2023-11-19T05:39:54;9.20;;;2.43;;
18716;SDS011;9487;50.892;6.906;2023-11-19T05:42:21;13.10;;;2.60;;
18716;SDS011;9487;50.892;6.906;2023-11-19T05:44:49;10.83;;;3.13;;
18716;SDS011;9487;50.892;6.906;2023-11-19T05:47:17;13.20;;;3.47;;
18716;SDS011;9487;50.892;6.906;2023-11-19T05:49:45;14.57;;;3.37;;
18716;SDS011;9487;50.892;6.906;2023-11-19T05:52:12;11.77;;;3.07;;
18716;SDS011;9487;50.892;6.906;2023-11-19T05:54:39;14.63;;;3.50;;
18716;SDS011;9487;50.892;6.906;2023-11-19T05:57:07;14.70;;;3.07;;
18716;SDS011;9487;50.892;6.906;2023-11-19T05:59:37;15.00;;;3.70;;
18716;SDS011;9487;50.892;6.906;2023-11-19T06:02:04;13.13;;;2.80;;
18716;SDS011;9487;50.892;6.906;2023-11-19T06:04:31;16.67;;;4.00;;
18716;SDS011;9487;50.892;6.906;2023-11-19T06:07:00;14.97;;;2.90;;
18716;SDS011;9487;50.892;6.906;2023-11-19T06:09:27;16.13;;;3.97;;
18716;SDS011;9487;50.892;6.906;2023-11-19T06:11:54;11.97;;;3.53;;
18716;SDS011;9487;50.892;6.906;2023-11-19T06:14:22;14.90;;;3.00;;
18716;SDS011;9487;50.892;6.906;2023-11-19T06:16:50;18.17;;;3.93;;
18716;SDS011;9487;50.892;6.906;2023-11-19T06:19:17;17.87;;;3.43;;
18716;SDS011;9487;50.892;6.906;2023-11-19T06:21:44;11.40;;;3.87;;
18716;SDS011;9487;50.892;6.906;2023-11-19T06:24:12;15.83;;;3.70;;
18716;SDS011;9487;50.892;6.906;2023-11-19T06:26:40;13.57;;;3.50;;
18716;SDS011;9487;50.892;6.906;2023-11-19T06:29:06;12.10;;;2.83;;
18716;SDS011;9487;50.892;6.906;2023-11-19T06:31:33;17.50;;;4.37;;
18716;SDS011;9487;50.892;6.906;2023-11-19T06:34:00;17.77;;;3.67;;
18716;SDS011;9487;50.892;6.906;2023-11-19T06:36:27;15.13;;;3.67;;
18716;SDS011;9487;50.892;6.906;2023-11-19T06:38:54;19.93;;;4.30;;
18716;SDS011;9487;50.892;6.906;2023-11-19T06:41:22;15.77;;;3.90;;
18716;SDS011;9487;50.892;6.906;2023-11-19T06:43:49;15.87;;;3.80;;
18716;SDS011;9487;50.892;6.906;2023-11-19T06:46:17;17.47;;;3.90;;
18716;SDS011;9487;50.892;6.906;2023-11-19T06:48:44;18.77;;;3.63;;
18716;SDS011;9487;50.892;6.906;2023-11-19T06:51:11;12.33;;;3.23;;
18716;SDS011;9487;50.892;6.906;2023-11-19T06:53:38;15.83;;;3.97;;
18716;SDS011;9487;50.892;6.906;2023-11-19T06:56:05;13.87;;;3.97;;
18716;SDS011;9487;50.892;6.906;2023-11-19T06:58:44;10.90;;;3.20;;
18716;SDS011;9487;50.892;6.906;2023-11-19T07:01:12;14.00;;;3.33;;
18716;SDS011;9487;50.892;6.906;2023-11-19T07:03:40;16.63;;;3.80;;
18716;SDS011;9487;50.892;6.906;2023-11-19T07:06:07;14.33;;;3.50;;
18716;SDS011;9487;50.892;6.906;2023-11-19T07:08:34;15.77;;;3.97;;
18716;SDS011;9487;50.892;6.906;2023-11-19T07:11:01;13.77;;;3.50;;
18716;SDS011;9487;50.892;6.906;2023-11-19T07:13:28;12.07;;;3.00;;
18716;SDS011;9487;50.892;6.906;2023-11-19T07:15:56;15.07;;;3.57;;
18716;SDS011;9487;50.892;6.906;2023-11-19T07:18:23;15.00;;;3.47;;
18716;SDS011;9487;50.892;6.906;2023-11-19T07:20:52;14.83;;;3.60;;
18716;SDS011;9487;50.892;6.906;2023-11-19T07:23:19;12.30;;;3.73;;
18716;SDS011;9487;50.892;6.906;2023-11-19T07:25:46;13.40;;;3.30;;
18716;SDS011;9487;50.892;6.906;2023-11-19T07:28:15;13.73;;;4.00;;
18716;SDS011;9487;50.892;6.906;2023-11-19T07:30:44;13.53;;;3.50;;
18716;SDS011;9487;50.892;6.906;2023-11-19T07:33:12;13.73;;;4.00;;
18716;SDS011;9487;50.892;6.906;2023-11-19T07:35:39;15.13;;;3.10;;
18716;SDS011;9487;50.892;6.906;2023-11-19T07:38:07;12.50;;;3.10;;
18716;SDS011;9487;50.892;6.906;2023-11-19T07:40:34;20.77;;;4.50;;
18716;SDS011;9487;50.892;6.906;2023-11-19T07:43:01;14.03;;;4.07;;
18716;SDS011;9487;50.892;6.906;2023-11-19T07:45:28;12.67;;;3.50;;
18716;SDS011;9487;50.892;6.906;2023-11-19T07:47:55;20.57;;;4.43;;
18716;SDS011;9487;50.892;6.906;2023-11-19T07:50:23;17.67;;;3.50;;
18716;SDS011;9487;50.892;6.906;2023-11-19T07:52:50;14.67;;;4.17;;
18716;SDS011;9487;50.892;6.906;2023-11-19T07:55:17;12.87;;;3.57;;
18716;SDS011;9487;50.892;6.906;2023-11-19T07:57:44;17.10;;;3.60;;
18716;SDS011;9487;50.892;6.906;2023-11-19T08:00:11;14.77;;;3.63;;
18716;SDS011;9487;50.892;6.906;2023-11-19T08:02:39;18.17;;;3.10;;
18716;SDS011;9487;50.892;6.906;2023-11-19T08:05:06;15.87;;;3.87;;
18716;SDS011;9487;50.892;6.906;2023-11-19T08:07:34;15.13;;;3.90;;
18716;SDS011;9487;50.892;6.906;2023-11-19T08:10:02;14.83;;;3.57;;
18716;SDS011;9487;50.892;6.906;2023-11-19T08:12:30;12.50;;;3.37;;
18716;SDS011;9487;50.892;6.906;2023-11-19T08:14:57;14.10;;;3.40;;
18716;SDS011;9487;50.892;6.906;2023-11-19T08:17:24;15.43;;;4.03;;
18716;SDS011;9487;50.892;6.906;2023-11-19T08:19:51;13.97;;;3.30;;
18716;SDS011;9487;50.892;6.906;2023-11-19T08:22:18;14.17;;;3.93;;
18716;SDS011;9487;50.892;6.906;2023-11-19T08:24:46;13.47;;;3.53;;
18716;SDS011;9487;50.892;6.906;2023-11-19T08:27:13;14.00;;;3.63;;
18716;SDS011;9487;50.892;6.906;2023-11-19T08:29:40;17.17;;;3.87;;
18716;SDS011;9487;50.892;6.906;2023-11-19T08:32:06;17.80;;;4.23;;
18716;SDS011;9487;50.892;6.906;2023-11-19T08:34:33;14.57;;;4.53;;
18716;SDS011;9487;50.892;6.906;2023-11-19T08:37:00;15.43;;;3.97;;
18716;SDS011;9487;50.892;6.906;2023-11-19T08:39:27;14.07;;;4.00;;
18716;SDS011;9487;50.892;6.906;2023-11-19T08:41:57;14.40;;;3.87;;
18716;SDS011;9487;50.892;6.906;2023-11-19T08:44:24;19.10;;;4.60;;
18716;SDS011;9487;50.892;6.906;2023-11-19T08:46:51;15.40;;;3.77;;
18716;SDS011;9487;50.892;6.906;2023-11-19T08:49:18;13.03;;;4.00;;
18716;SDS011;9487;50.892;6.906;2023-11-19T08:51:45;12.57;;;3.80;;
18716;SDS011;9487;50.892;6.906;2023-11-19T08:54:12;13.20;;;3.37;;
18716;SDS011;9487;50.892;6.906;2023-11-19T08:56:39;16.20;;;3.80;;
18716;SDS011;9487;50.892;6.906;2023-11-19T08:59:07;11.13;;;3.27;;
18716;SDS011;9487;50.892;6.906;2023-11-19T09:01:34;17.57;;;4.33;;
18716;SDS011;9487;50.892;6.906;2023-11-19T09:04:01;16.97;;;3.50;;
18716;SDS011;9487;50.892;6.906;2023-11-19T09:06:29;11.53;;;3.40;;
18716;SDS011;9487;50.892;6.906;2023-11-19T09:08:56;14.90;;;3.43;;
18716;SDS011;9487;50.892;6.906;2023-11-19T09:11:27;12.87;;;3.33;;
18716;SDS011;9487;50.892;6.906;2023-11-19T09:13:54;14.90;;;3.43;;
18716;SDS011;9487;50.892;6.906;2023-11-19T09:16:22;13.30;;;4.10;;
18716;SDS011;9487;50.892;6.906;2023-11-19T09:18:50;15.43;;;3.57;;
18716;SDS011;9487;50.892;6.906;2023-11-19T09:21:17;16.30;;;3.90;;
18716;SDS011;9487;50.892;6.906;2023-11-19T09:23:44;14.40;;;3.30;;
18716;SDS011;9487;50.892;6.906;2023-11-19T09:26:13;15.97;;;4.80;;
18716;SDS011;9487;50.892;6.906;2023-11-19T09:28:40;16.90;;;4.10;;
18716;SDS011;9487;50.892;6.906;2023-11-19T09:31:12;15.03;;;3.57;;
18716;SDS011;9487;50.892;6.906;2023-11-19T09:33:41;15.13;;;3.57;;
18716;SDS011;9487;50.892;6.906;2023-11-19T09:36:08;16.57;;;3.73;;
18716;SDS011;9487;50.892;6.906;2023-11-19T09:38:36;16.30;;;4.00;;
18716;SDS011;9487;50.892;6.906;2023-11-19T09:41:03;15.00;;;3.83;;
18716;SDS011;9487;50.892;6.906;2023-11-19T09:43:33;18.23;;;4.43;;
18716;SDS011;9487;50.892;6.906;2023-11-19T09:46:01;16.57;;;4.17;;
18716;SDS011;9487;50.892;6.906;2023-11-19T09:48:32;17.33;;;3.70;;
18716;SDS011;9487;50.892;6.906;2023-11-19T09:51:03;12.23;;;3.87;;
18716;SDS011;9487;50.892;6.906;2023-11-19T09:53:32;16.50;;;3.57;;
18716;SDS011;9487;50.892;6.906;2023-11-19T09:55:59;14.83;;;3.67;;
18716;SDS011;9487;50.892;6.906;2023-11-19T09:58:28;16.27;;;4.53;;
18716;SDS011;9487;50.892;6.906;2023-11-19T10:00:55;12.43;;;3.57;;
18716;SDS011;9487;50.892;6.906;2023-11-19T10:03:23;15.27;;;3.67;;
18716;SDS011;9487;50.892;6.906;2023-11-19T10:05:51;18.27;;;4.07;;
18716;SDS011;9487;50.892;6.906;2023-11-19T10:08:20;16.53;;;4.10;;
18716;SDS011;9487;50.892;6.906;2023-11-19T10:10:47;20.17;;;3.80;;
18716;SDS011;9487;50.892;6.906;2023-11-19T10:13:14;16.43;;;4.27;;
18716;SDS011;9487;50.892;6.906;2023-11-19T10:15:41;15.30;;;4.33;;
18716;SDS011;9487;50.892;6.906;2023-11-19T10:18:10;14.27;;;4.37;;
18716;SDS011;9487;50.892;6.906;2023-11-19T10:20:37;15.33;;;3.67;;
18716;SDS011;9487;50.892;6.906;2023-11-19T10:23:07;14.40;;;3.90;;
18716;SDS011;9487;50.892;6.906;2023-11-19T10:25:35;18.73;;;4.27;;
18716;SDS011;9487;50.892;6.906;2023-11-19T10:28:02;16.87;;;4.63;;
18716;SDS011;9487;50.892;6.906;2023-11-19T10:30:30;12.77;;;3.73;;
18716;SDS011;9487;50.892;6.906;2023-11-19T10:33:02;14.33;;;4.40;;
18716;SDS011;9487;50.892;6.906;2023-11-19T10:35:30;12.17;;;3.80;;
18716;SDS011;9487;50.892;6.906;2023-11-19T10:37:58;15.37;;;3.80;;
18716;SDS011;9487;50.892;6.906;2023-11-19T10:40:38;14.67;;;4.00;;
18716;SDS011;9487;50.892;6.906;2023-11-19T10:43:06;14.77;;;3.33;;
18716;SDS011;9487;50.892;6.906;2023-11-19T10:45:33;17.70;;;4.37;;
18716;SDS011;9487;50.892;6.906;2023-11-19T10:48:00;16.20;;;3.90;;
18716;SDS011;9487;50.892;6.906;2023-11-19T10:50:31;14.07;;;3.73;;
18716;SDS011;9487;50.892;6.906;2023-11-19T10:52:58;12.50;;;3.87;;
18716;SDS011;9487;50.892;6.906;2023-11-19T10:55:26;15.07;;;4.00;;
18716;SDS011;9487;50.892;6.906;2023-11-19T10:57:58;14.53;;;3.83;;
18716;SDS011;9487;50.892;6.906;2023-11-19T11:00:26;17.50;;;4.13;;
18716;SDS011;9487;50.892;6.906;2023-11-19T11:02:56;14.17;;;4.10;;
18716;SDS011;9487;50.892;6.906;2023-11-19T11:05:27;9.70;;;3.10;;
18716;SDS011;9487;50.892;6.906;2023-11-19T11:07:58;14.90;;;3.30;;
18716;SDS011;9487;50.892;6.906;2023-11-19T11:10:27;12.73;;;3.50;;
18716;SDS011;9487;50.892;6.906;2023-11-19T11:13:00;12.97;;;3.63;;
18716;SDS011;9487;50.892;6.906;2023-11-19T11:15:31;12.23;;;3.30;;
18716;SDS011;9487;50.892;6.906;2023-11-19T11:18:00;12.23;;;3.63;;
18716;SDS011;9487;50.892;6.906;2023-11-19T11:20:28;14.83;;;3.67;;
18716;SDS011;9487;50.892;6.906;2023-11-19T11:23:02;15.17;;;3.60;;
18716;SDS011;9487;50.892;6.906;2023-11-19T11:25:49;12.23;;;3.27;;
18716;SDS011;9487;50.892;6.906;2023-11-19T11:28:29;13.27;;;3.50;;
18716;SDS011;9487;50.892;6.906;2023-11-19T11:31:06;14.33;;;3.73;;
18716;SDS011;9487;50.892;6.906;2023-11-19T11:33:42;10.73;;;3.80;;
18716;SDS011;9487;50.892;6.906;2023-11-19T11:36:22;12.13;;;3.50;;
18716;SDS011;9487;50.892;6.906;2023-11-19T11:38:49;14.40;;;3.70;;
18716;SDS011;9487;50.892;6.906;2023-11-19T11:41:17;10.43;;;3.50;;
18716;SDS011;9487;50.892;6.906;2023-11-19T11:43:50;14.07;;;3.43;;
18716;SDS011;9487;50.892;6.906;2023-11-19T11:49:25;12.63;;;3.23;;
18716;SDS011;9487;50.892;6.906;2023-11-19T11:51:58;9.27;;;2.17;;
18716;SDS011;9487;50.892;6.906;2023-11-19T11:54:32;14.93;;;2.60;;
18716;SDS011;9487;50.892;6.906;2023-11-19T11:57:03;11.43;;;2.77;;
18716;SDS011;9487;50.892;6.906;2023-11-19T11:59:47;11.53;;;3.20;;
18716;SDS011;9487;50.892;6.906;2023-11-19T12:02:16;11.63;;;3.33;;
18716;SDS011;9487;50.892;6.906;2023-11-19T12:04:47;11.47;;;2.93;;
18716;SDS011;9487;50.892;6.906;2023-11-19T12:07:16;9.97;;;2.47;;
18716;SDS011;9487;50.892;6.906;2023-11-19T12:09:47;9.60;;;2.73;;
18716;SDS011;9487;50.892;6.906;2023-11-19T12:12:21;12.20;;;3.23;;
18716;SDS011;9487;50.892;6.906;2023-11-19T12:15:01;8.73;;;3.17;;
18716;SDS011;9487;50.892;6.906;2023-11-19T12:17:37;10.67;;;2.67;;
18716;SDS011;9487;50.892;6.906;2023-11-19T12:20:09;9.93;;;2.80;;
18716;SDS011;9487;50.892;6.906;2023-11-19T12:22:37;8.93;;;2.60;;
18716;SDS011;9487;50.892;6.906;2023-11-19T12:25:05;12.10;;;3.23;;
18716;SDS011;9487;50.892;6.906;2023-11-19T12:27:33;14.23;;;5.20;;
18716;SDS011;9487;50.892;6.906;2023-11-19T12:30:02;13.43;;;3.50;;
18716;SDS011;9487;50.892;6.906;2023-11-19T12:32:37;13.17;;;3.80;;
18716;SDS011;9487;50.892;6.906;2023-11-19T12:35:05;11.27;;;3.87;;
18716;SDS011;9487;50.892;6.906;2023-11-19T12:37:38;13.33;;;5.23;;
18716;SDS011;9487;50.892;6.906;2023-11-19T12:40:12;12.10;;;4.53;;
18716;SDS011;9487;50.892;6.906;2023-11-19T12:42:43;13.13;;;4.00;;
18716;SDS011;9487;50.892;6.906;2023-11-19T12:45:13;10.30;;;3.33;;
18716;SDS011;9487;50.892;6.906;2023-11-19T12:47:41;12.23;;;2.93;;
18716;SDS011;9487;50.892;6.906;2023-11-19T12:50:09;12.13;;;3.00;;
18716;SDS011;9487;50.892;6.906;2023-11-19T12:52:38;9.37;;;2.83;;
18716;SDS011;9487;50.892;6.906;2023-11-19T12:57:52;8.67;;;3.07;;
18716;SDS011;9487;50.892;6.906;2023-11-19T13:00:22;9.30;;;3.10;;
18716;SDS011;9487;50.892;6.906;2023-11-19T13:02:50;9.43;;;2.97;;
18716;SDS011;9487;50.892;6.906;2023-11-19T13:05:24;10.30;;;2.63;;
18716;SDS011;9487;50.892;6.906;2023-11-19T13:07:59;8.77;;;2.20;;
18716;SDS011;9487;50.892;6.906;2023-11-19T13:10:27;10.53;;;2.77;;
18716;SDS011;9487;50.892;6.906;2023-11-19T13:13:04;13.50;;;2.63;;
18716;SDS011;9487;50.892;6.906;2023-11-19T13:15:34;9.23;;;3.07;;
18716;SDS011;9487;50.892;6.906;2023-11-19T13:18:02;13.03;;;3.57;;
18716;SDS011;9487;50.892;6.906;2023-11-19T13:20:32;11.97;;;3.63;;
18716;SDS011;9487;50.892;6.906;2023-11-19T13:22:59;12.67;;;3.77;;
18716;SDS011;9487;50.892;6.906;2023-11-19T13:25:27;16.50;;;3.17;;
18716;SDS011;9487;50.892;6.906;2023-11-19T13:27:55;12.97;;;3.23;;
18716;SDS011;9487;50.892;6.906;2023-11-19T13:30:22;12.30;;;3.53;;
18716;SDS011;9487;50.892;6.906;2023-11-19T13:32:51;12.63;;;3.47;;
18716;SDS011;9487;50.892;6.906;2023-11-19T13:35:20;13.73;;;3.97;;
18716;SDS011;9487;50.892;6.906;2023-11-19T13:37:48;12.87;;;3.13;;
18716;SDS011;9487;50.892;6.906;2023-11-19T13:40:15;9.30;;;2.83;;
18716;SDS011;9487;50.892;6.906;2023-11-19T13:42:42;12.33;;;3.90;;
18716;SDS011;9487;50.892;6.906;2023-11-19T13:45:09;13.37;;;3.37;;
18716;SDS011;9487;50.892;6.906;2023-11-19T13:47:39;12.17;;;3.70;;
18716;SDS011;9487;50.892;6.906;2023-11-19T13:50:10;12.73;;;3.43;;
18716;SDS011;9487;50.892;6.906;2023-11-19T13:52:39;12.43;;;3.43;;
18716;SDS011;9487;50.892;6.906;2023-11-19T13:55:07;13.40;;;4.03;;
18716;SDS011;9487;50.892;6.906;2023-11-19T13:57:35;12.03;;;3.00;;
18716;SDS011;9487;50.892;6.906;2023-11-19T14:00:03;17.00;;;3.97;;
18716;SDS011;9487;50.892;6.906;2023-11-19T14:02:31;13.30;;;3.73;;
18716;SDS011;9487;50.892;6.906;2023-11-19T14:04:58;14.40;;;3.17;;
18716;SDS011;9487;50.892;6.906;2023-11-19T14:07:27;15.00;;;3.43;;
18716;SDS011;9487;50.892;6.906;2023-11-19T14:09:54;10.77;;;2.77;;
18716;SDS011;9487;50.892;6.906;2023-11-19T14:12:21;11.53;;;3.23;;
18716;SDS011;9487;50.892;6.906;2023-11-19T14:14:48;15.33;;;3.90;;
18716;SDS011;9487;50.892;6.906;2023-11-19T14:17:15;16.13;;;3.90;;
18716;SDS011;9487;50.892;6.906;2023-11-19T14:19:42;11.17;;;3.70;;
18716;SDS011;9487;50.892;6.906;2023-11-19T14:22:09;11.23;;;2.90;;
18716;SDS011;9487;50.892;6.906;2023-11-19T14:24:38;15.87;;;3.97;;
18716;SDS011;9487;50.892;6.906;2023-11-19T14:27:05;12.73;;;3.20;;
18716;SDS011;9487;50.892;6.906;2023-11-19T14:29:32;11.57;;;3.00;;
18716;SDS011;9487;50.892;6.906;2023-11-19T14:32:00;12.07;;;2.93;;
18716;SDS011;9487;50.892;6.906;2023-11-19T14:34:27;10.27;;;2.87;;
18716;SDS011;9487;50.892;6.906;2023-11-19T14:36:55;12.77;;;3.60;;
18716;SDS011;9487;50.892;6.906;2023-11-19T14:39:22;11.77;;;3.40;;
18716;SDS011;9487;50.892;6.906;2023-11-19T14:41:50;13.10;;;3.40;;
18716;SDS011;9487;50.892;6.906;2023-11-19T14:44:18;9.70;;;3.10;;
18716;SDS011;9487;50.892;6.906;2023-11-19T14:46:46;9.93;;;2.70;;
18716;SDS011;9487;50.892;6.906;2023-11-19T14:49:13;11.83;;;3.40;;
18716;SDS011;9487;50.892;6.906;2023-11-19T14:51:40;11.20;;;2.97;;
18716;SDS011;9487;50.892;6.906;2023-11-19T14:54:07;14.33;;;3.03;;
18716;SDS011;9487;50.892;6.906;2023-11-19T14:56:34;11.77;;;2.77;;
18716;SDS011;9487;50.892;6.906;2023-11-19T14:59:04;15.13;;;3.43;;
18716;SDS011;9487;50.892;6.906;2023-11-19T15:01:32;13.90;;;3.43;;
18716;SDS011;9487;50.892;6.906;2023-11-19T15:04:01;13.93;;;3.33;;
18716;SDS011;9487;50.892;6.906;2023-11-19T15:06:27;9.80;;;3.00;;
18716;SDS011;9487;50.892;6.906;2023-11-19T15:08:55;10.10;;;2.77;;